Radiosonde details



Informationen :

Serial : D26019536
Type : Graw DFM
Frequency : 403.010MHz
Launchsite : Tampa Bay Area
Nearest town : Tierra Verde, US (17.5km)

Altitude (Max) : 33183m at 2026-08-31 12:43:01
Speed (Max) : 128km/h at altitude 30723m

Average speed : 32km/h
Average ascent rate : 5m/s
Average descent rate : -13m/s
Ascent rate (Max) : 13.6m/s
Descent rate (Max): -44.7m/s

First frame :
ARGUS2 at 2026-08-31 11:04:52 at altitude 1351m (OG: 1309m)
Last frame :
ARGUS2 at 2026-08-31 13:25:29 at altitude 813m (OG: 771m)

Flighttime : 2h20m37s
Ascent time : 1h38m9s
Descent time : 42m28s
Uptime : -
Killtimer : -

Distance (Straight line distance): 48km

Distance (Route):


Frames : 342


Measurement :

Temperature : 21.6°C
Humidity : 0%
Pressure : 0hPa


Vertical profile (SkewT) :


Elevation profile :



Receiving stations :


Receiver Frames First received Last received
ARGUS2 342 2026-08-31 11:04:52 2026-08-31 13:25:29

Share per receiver :



All frames :


Receiver Date Latitude Longitude Direction Speed Altitude Climb Temperature Humidity Pressure Voltage Killtimer Uptime BKT XDATA
ARGUS22026-08-31 13:25:2927.62429-82.88417287°7km/h813m-7.2m/s21.6°C0%0hPa0V00:00:0000:00:0000:00:00
ARGUS22026-08-31 13:25:0927.62413-82.88360303°9km/h959m-7.0m/s20.5°C0%0hPa0V00:00:0000:00:0000:00:00
ARGUS22026-08-31 13:24:4727.62404-82.88314228°5km/h1109m-7.6m/s19.9°C0%0hPa0V00:00:0000:00:0000:00:00
ARGUS22026-08-31 13:24:2727.62430-82.88273232°5km/h1261m-7.7m/s19.4°C0%0hPa0V00:00:0000:00:0000:00:00
ARGUS22026-08-31 13:24:0727.62458-82.88265193°5km/h1416m-6.9m/s18.5°C0%0hPa0V00:00:0000:00:0000:00:00
ARGUS22026-08-31 13:23:4527.62474-82.88233215°5km/h1569m-7.4m/s17.5°C0%0hPa0V00:00:0000:00:0000:00:00
ARGUS22026-08-31 13:23:2427.62486-82.882140km/h1725m-7.5m/s16.2°C0%0hPa0V00:00:0000:00:0000:00:00
ARGUS22026-08-31 13:23:0327.62484-82.88179268°4km/h1880m-7.2m/s15.3°C0%0hPa0V00:00:0000:00:0000:00:00
ARGUS22026-08-31 13:22:4327.62477-82.88152311°4km/h2035m-7.1m/s14.4°C0%0hPa0V00:00:0000:00:0000:00:00
ARGUS22026-08-31 13:22:2227.62458-82.88125294°7km/h2183m-7.6m/s13.6°C0%0hPa0V00:00:0000:00:0000:00:00
ARGUS22026-08-31 13:22:0227.62439-82.88088294°4km/h2340m-7.2m/s12.8°C0%0hPa0V00:00:0000:00:0000:00:00
ARGUS22026-08-31 13:21:4127.62427-82.88053290°9km/h2490m-7.6m/s11.8°C0%0hPa0V00:00:0000:00:0000:00:00
ARGUS22026-08-31 13:21:2127.62407-82.88024360°4km/h2647m-7.4m/s11.1°C0%0hPa0V00:00:0000:00:0000:00:00
ARGUS22026-08-31 13:20:5927.62377-82.88015328°4km/h2808m-7.9m/s10.8°C0%0hPa0V00:00:0000:00:0000:00:00
ARGUS22026-08-31 13:17:2427.62237-82.87630290°9km/h4556m-7.9m/s1.5°C0%0hPa0V00:00:0000:00:0000:00:00
ARGUS22026-08-31 13:17:0327.62217-82.87570297°11km/h4723m-8.1m/s0.3°C0%0hPa0V00:00:0000:00:0000:00:00
ARGUS22026-08-31 13:16:4327.62208-82.87508287°11km/h4900m-8.5m/s-1.5°C0%0hPa0V00:00:0000:00:0000:00:00
ARGUS22026-08-31 13:16:2027.62223-82.87427259°16km/h5092m-8.5m/s-1.6°C0%0hPa0V00:00:0000:00:0000:00:00
ARGUS22026-08-31 13:15:5927.62250-82.87332258°16km/h5279m-8.6m/s-2.4°C0%0hPa0V00:00:0000:00:0000:00:00
ARGUS22026-08-31 13:13:4227.62302-82.86603243°20km/h6466m-9.2m/s-9.3°C0%0hPa0V00:00:0000:00:0000:00:00
ARGUS22026-08-31 13:13:2027.62370-82.86493239°22km/h6681m-9.1m/s-10.5°C0%0hPa0V00:00:0000:00:0000:00:00
ARGUS22026-08-31 13:12:5427.62411-82.86372256°18km/h6929m-10.3m/s-11.5°C0%0hPa0V00:00:0000:00:0000:00:00
ARGUS22026-08-31 13:12:3427.62437-82.86284240°15km/h7127m-10.0m/s-12.8°C0%0hPa0V00:00:0000:00:0000:00:00
ARGUS22026-08-31 13:12:1327.62487-82.86210227°15km/h7336m-10.4m/s-13.9°C0%0hPa0V00:00:0000:00:0000:00:00
ARGUS22026-08-31 13:11:5327.62548-82.86140232°18km/h7541m-10.0m/s-14.9°C0%0hPa0V00:00:0000:00:0000:00:00
ARGUS22026-08-31 13:11:3227.62627-82.86071205°20km/h7758m-10.5m/s-16.4°C0%0hPa0V00:00:0000:00:0000:00:00
ARGUS22026-08-31 13:11:1227.62699-82.85995221°16km/h7962m-10.4m/s-17.9°C0%0hPa0V00:00:0000:00:0000:00:00
ARGUS22026-08-31 13:10:5227.62741-82.85929229°15km/h8177m-10.3m/s-19.1°C0%0hPa0V00:00:0000:00:0000:00:00
ARGUS22026-08-31 13:10:3127.62764-82.85872249°11km/h8381m-10.4m/s-20.4°C0%0hPa0V00:00:0000:00:0000:00:00
ARGUS22026-08-31 13:10:1127.62783-82.85819221°9km/h8594m-10.3m/s-22.0°C0%0hPa0V00:00:0000:00:0000:00:00
ARGUS22026-08-31 13:09:5027.62829-82.85782221°13km/h8795m-9.7m/s-23.2°C0%0hPa0V00:00:0000:00:0000:00:00
ARGUS22026-08-31 13:09:3027.62894-82.85743225°13km/h9004m-9.9m/s-24.7°C0%0hPa0V00:00:0000:00:0000:00:00
ARGUS22026-08-31 13:09:0827.62935-82.85699241°9km/h9214m-10.1m/s-26.2°C0%0hPa0V00:00:0000:00:0000:00:00
ARGUS22026-08-31 13:08:4827.62970-82.85669195°4km/h9415m-9.5m/s-27.4°C0%0hPa0V00:00:0000:00:0000:00:00
ARGUS22026-08-31 13:08:2727.62989-82.8566369°4km/h9623m-10.2m/s-29.2°C0%0hPa0V00:00:0000:00:0000:00:00
ARGUS22026-08-31 13:08:0627.62973-82.8570948°11km/h9829m-10.0m/s-30.7°C0%0hPa0V00:00:0000:00:0000:00:00
ARGUS22026-08-31 13:07:4627.62942-82.8576853°13km/h10044m-10.0m/s-32.5°C0%0hPa0V00:00:0000:00:0000:00:00
ARGUS22026-08-31 13:07:2327.62905-82.8585165°16km/h10259m-9.7m/s-34.0°C0%0hPa0V00:00:0000:00:0000:00:00
ARGUS22026-08-31 13:06:1127.62803-82.8625675°24km/h10888m-7.7m/s-39.3°C0%0hPa0V00:00:0000:00:0000:00:00
ARGUS22026-08-31 13:05:4727.62779-82.8640879°18km/h11029m-8.9m/s-40.5°C0%0hPa0V00:00:0000:00:0000:00:00
ARGUS22026-08-31 13:05:2527.62771-82.8655988°24km/h11235m-9.0m/s-42.2°C0%0hPa0V00:00:0000:00:0000:00:00
ARGUS22026-08-31 13:05:0327.62780-82.8670691°26km/h11434m-8.9m/s-43.8°C0%0hPa0V00:00:0000:00:0000:00:00
ARGUS22026-08-31 13:04:4227.62799-82.8683795°22km/h11614m-9.0m/s-45.1°C0%0hPa0V00:00:0000:00:0000:00:00
ARGUS22026-08-31 13:04:2227.62820-82.86969114°22km/h11802m-8.8m/s-46.8°C0%0hPa0V00:00:0000:00:0000:00:00
ARGUS22026-08-31 13:04:0127.62839-82.8708696°22km/h11985m-9.6m/s-48.2°C0%0hPa0V00:00:0000:00:0000:00:00
ARGUS22026-08-31 12:59:1727.63157-82.873720km/h14925m-11.4m/s-68.8°C0%0hPa0V00:00:0000:00:0000:00:00
ARGUS22026-08-31 12:58:5627.63182-82.87347191°13km/h15170m-11.8m/s-68.6°C0%0hPa0V00:00:0000:00:0000:00:00
ARGUS22026-08-31 12:58:3527.63223-82.87336194°7km/h15420m-11.9m/s-68.1°C0%0hPa0V00:00:0000:00:0000:00:00
ARGUS22026-08-31 12:58:1427.63282-82.87304220°18km/h15682m-11.7m/s-67.9°C0%0hPa0V00:00:0000:00:0000:00:00
ARGUS22026-08-31 12:57:5227.63376-82.87252189°20km/h15950m-12.4m/s-64.8°C0%0hPa0V00:00:0000:00:0000:00:00
ARGUS22026-08-31 12:57:3127.63514-82.87240185°33km/h16212m-12.5m/s-66.4°C0%0hPa0V00:00:0000:00:0000:00:00
ARGUS22026-08-31 12:57:1027.63646-82.87235200°16km/h16481m-13.0m/s-66.1°C0%0hPa0V00:00:0000:00:0000:00:00
ARGUS22026-08-31 12:56:4727.63730-82.87169225°20km/h16767m-12.9m/s-67.7°C0%0hPa0V00:00:0000:00:0000:00:00
ARGUS22026-08-31 12:56:0527.63829-82.86980227°22km/h17334m-13.3m/s-67.5°C0%0hPa0V00:00:0000:00:0000:00:00
ARGUS22026-08-31 12:55:4227.63898-82.86821257°35km/h17667m-14.1m/s-67.2°C0%0hPa0V00:00:0000:00:0000:00:00
ARGUS22026-08-31 12:55:1727.63873-82.86617294°26km/h17998m-14.5m/s-68.3°C0%0hPa0V00:00:0000:00:0000:00:00
ARGUS22026-08-31 12:54:1127.64084-82.86257251°27km/h19044m-16.2m/s-64.6°C0%0hPa0V00:00:0000:00:0000:00:00
ARGUS22026-08-31 12:53:4827.64123-82.86095223°44km/h19430m-16.9m/s-61.3°C0%0hPa0V00:00:0000:00:0000:00:00
ARGUS22026-08-31 12:53:2627.64334-82.85853238°62km/h19785m-16.6m/s-60.8°C0%0hPa0V00:00:0000:00:0000:00:00
ARGUS22026-08-31 12:53:0327.64479-82.85481263°55km/h20196m-17.3m/s-61.2°C0%0hPa0V00:00:0000:00:0000:00:00
ARGUS22026-08-31 12:50:5127.64247-82.83853292°57km/h22539m-15.4m/s-59.3°C0%0hPa0V00:00:0000:00:0000:00:00
ARGUS22026-08-31 12:50:3127.64180-82.83566286°37km/h22881m-17.4m/s-58.2°C0%0hPa0V00:00:0000:00:0000:00:00
ARGUS22026-08-31 12:50:1027.64173-82.83385242°33km/h23226m-16.8m/s-57.2°C0%0hPa0V00:00:0000:00:0000:00:00
ARGUS22026-08-31 12:49:5027.64282-82.83134257°57km/h23595m-18.2m/s-55.4°C0%0hPa0V00:00:0000:00:0000:00:00
ARGUS22026-08-31 12:49:2927.64377-82.82845241°66km/h23967m-19.1m/s-53.9°C0%0hPa0V00:00:0000:00:0000:00:00
ARGUS22026-08-31 12:49:0927.64434-82.82450284°58km/h24347m-24.1m/s-53.5°C0%0hPa0V00:00:0000:00:0000:00:00
ARGUS22026-08-31 12:48:4827.64329-82.82156282°46km/h24751m-19.9m/s-52.2°C0%0hPa0V00:00:0000:00:0000:00:00
ARGUS22026-08-31 12:48:2727.64320-82.81896280°47km/h25139m-17.7m/s-51.2°C0%0hPa0V00:00:0000:00:0000:00:00
ARGUS22026-08-31 12:48:0627.64260-82.81620286°42km/h25529m-20.6m/s-49.9°C0%0hPa0V00:00:0000:00:0000:00:00
ARGUS22026-08-31 12:47:4527.64242-82.81442232°29km/h25950m-20.9m/s-50.4°C0%0hPa0V00:00:0000:00:0000:00:00
ARGUS22026-08-31 12:47:2427.64375-82.81238236°68km/h26358m-20.1m/s-50.5°C0%0hPa0V00:00:0000:00:0000:00:00
ARGUS22026-08-31 12:47:0327.64509-82.80914248°60km/h26772m-21.8m/s-51.2°C0%0hPa0V00:00:0000:00:0000:00:00
ARGUS22026-08-31 12:46:4227.64541-82.80614288°31km/h27222m-18.9m/s-48.7°C0%0hPa0V00:00:0000:00:0000:00:00
ARGUS22026-08-31 12:46:2027.64586-82.80397258°53km/h27721m-23.8m/s-48.4°C0%0hPa0V00:00:0000:00:0000:00:00
ARGUS22026-08-31 12:45:5927.64634-82.80024267°64km/h28226m-21.9m/s-47.1°C0%0hPa0V00:00:0000:00:0000:00:00
ARGUS22026-08-31 12:45:3727.64689-82.79632240°58km/h28767m-25.4m/s-45.6°C0%0hPa0V00:00:0000:00:0000:00:00
ARGUS22026-08-31 12:45:1827.64836-82.79292248°75km/h29307m-26.9m/s-45.2°C0%0hPa0V00:00:0000:00:0000:00:00
ARGUS22026-08-31 12:44:5227.64959-82.78741260°102km/h29976m-26.0m/s-44.2°C0%0hPa0V00:00:0000:00:0000:00:00
ARGUS22026-08-31 12:44:2827.64884-82.78178282°78km/h30733m-29.3m/s-40.7°C0%0hPa0V00:00:0000:00:0000:00:00
ARGUS22026-08-31 12:44:0527.64847-82.77841261°55km/h31465m-34.0m/s-39.1°C0%0hPa0V00:00:0000:00:0000:00:00
ARGUS22026-08-31 12:43:4327.64893-82.77522262°55km/h32187m-32.2m/s-39.4°C0%0hPa0V00:00:0000:00:0000:00:00
ARGUS22026-08-31 12:43:2227.64839-82.77226317°40km/h32999m-44.7m/s-35.9°C0%0hPa0V00:00:0000:00:0000:00:00
ARGUS22026-08-31 12:43:0127.64739-82.77006277°42km/h33183m-1.8m/s-36.0°C0%0hPa0V00:00:0000:00:0000:00:00
ARGUS22026-08-31 12:42:4127.64644-82.76807287°75km/h33027m12.3m/s-36.1°C0%0hPa0V00:00:0000:00:0000:00:00
ARGUS22026-08-31 12:42:1927.64553-82.7656629°15km/h32877m12.1m/s-36.2°C0%0hPa0V00:00:0000:00:0000:00:00
ARGUS22026-08-31 12:41:5927.64505-82.76299300°110km/h32726m6.3m/s-37.3°C0%0hPa0V00:00:0000:00:0000:00:00
ARGUS22026-08-31 12:41:3827.64447-82.75998273°95km/h32576m8.0m/s-38.0°C0%0hPa0V00:00:0000:00:0000:00:00
ARGUS22026-08-31 12:40:5627.64422-82.75317241°58km/h32279m9.2m/s-38.9°C0%0hPa0V00:00:0000:00:0000:00:00
ARGUS22026-08-31 12:40:3527.64444-82.74995321°35km/h32152m7.0m/s-39.6°C0%0hPa0V00:00:0000:00:0000:00:00
ARGUS22026-08-31 12:40:1427.64519-82.74701299°73km/h32016m4.4m/s-39.8°C0%0hPa0V00:00:0000:00:0000:00:00
ARGUS22026-08-31 12:39:5427.64584-82.74429283°91km/h31883m10.2m/s-39.5°C0%0hPa0V00:00:0000:00:0000:00:00
ARGUS22026-08-31 12:39:3427.64610-82.74130273°106km/h31746m5.4m/s-39.5°C0%0hPa0V00:00:0000:00:0000:00:00
ARGUS22026-08-31 12:39:1227.64660-82.73807232°88km/h31609m6.0m/s-39.8°C0%0hPa0V00:00:0000:00:0000:00:00
ARGUS22026-08-31 12:38:5127.64740-82.7348614°16km/h31476m9.3m/s-39.5°C0%0hPa0V00:00:0000:00:0000:00:00
ARGUS22026-08-31 12:38:3127.64797-82.73277303°55km/h31318m5.2m/s-39.1°C0%0hPa0V00:00:0000:00:0000:00:00
ARGUS22026-08-31 12:38:0927.64799-82.73063301°97km/h31187m1.7m/s-40.0°C0%0hPa0V00:00:0000:00:0000:00:00
ARGUS22026-08-31 12:37:4627.64692-82.72668306°82km/h31027m5.5m/s-40.7°C0%0hPa0V00:00:0000:00:0000:00:00
ARGUS22026-08-31 12:37:2427.64609-82.72279250°86km/h30893m6.7m/s-41.1°C0%0hPa0V00:00:0000:00:0000:00:00
ARGUS22026-08-31 12:37:0027.64524-82.71764280°126km/h30723m13.6m/s-42.1°C0%0hPa0V00:00:0000:00:0000:00:00
ARGUS22026-08-31 12:36:4027.64422-82.71319245°89km/h30583m9.7m/s-43.2°C0%0hPa0V00:00:0000:00:0000:00:00
ARGUS22026-08-31 12:36:2027.64303-82.70815256°57km/h30443m11.1m/s-43.7°C0%0hPa0V00:00:0000:00:0000:00:00
ARGUS22026-08-31 12:35:5927.64216-82.70328308°27km/h30306m6.7m/s-44.8°C0%0hPa0V00:00:0000:00:0000:00:00
ARGUS22026-08-31 12:35:3927.64230-82.69844236°38km/h30166m6.2m/s-44.7°C0%0hPa0V00:00:0000:00:0000:00:00
ARGUS22026-08-31 12:35:1827.64318-82.69330277°42km/h30033m6.0m/s-45.0°C0%0hPa0V00:00:0000:00:0000:00:00
ARGUS22026-08-31 12:34:5827.64425-82.68855288°44km/h29890m7.1m/s-44.9°C0%0hPa0V00:00:0000:00:0000:00:00
ARGUS22026-08-31 12:34:3627.64507-82.68425288°89km/h29755m4.8m/s-45.3°C0%0hPa0V00:00:0000:00:0000:00:00
ARGUS22026-08-31 12:34:1627.64599-82.67995270°119km/h29616m2.0m/s-45.8°C0%0hPa0V00:00:0000:00:0000:00:00
ARGUS22026-08-31 12:33:5427.64703-82.67570245°100km/h29465m10.4m/s-45.8°C0%0hPa0V00:00:0000:00:0000:00:00
ARGUS22026-08-31 12:33:3427.64825-82.67183200°53km/h29327m5.0m/s-45.8°C0%0hPa0V00:00:0000:00:0000:00:00
ARGUS22026-08-31 12:33:1427.64972-82.66844269°69km/h29185m5.6m/s-46.5°C0%0hPa0V00:00:0000:00:0000:00:00
ARGUS22026-08-31 12:32:5327.65103-82.66486258°97km/h29033m10.9m/s-46.3°C0%0hPa0V00:00:0000:00:0000:00:00
ARGUS22026-08-31 12:32:3127.65302-82.66112251°69km/h28890m10.6m/s-45.7°C0%0hPa0V00:00:0000:00:0000:00:00
ARGUS22026-08-31 12:32:1127.65466-82.65762227°37km/h28744m6.0m/s-45.1°C0%0hPa0V00:00:0000:00:0000:00:00
ARGUS22026-08-31 12:31:5027.65564-82.65408254°46km/h28599m8.2m/s-45.3°C0%0hPa0V00:00:0000:00:0000:00:00
ARGUS22026-08-31 12:31:3027.65623-82.65059258°82km/h28473m3.2m/s-45.8°C0%0hPa0V00:00:0000:00:0000:00:00
ARGUS22026-08-31 12:31:0927.65677-82.64701259°95km/h28339m-2.2m/s-46.4°C0%0hPa0V00:00:0000:00:0000:00:00
ARGUS22026-08-31 12:30:4927.65701-82.64386281°58km/h28218m9.2m/s-47.0°C0%0hPa0V00:00:0000:00:0000:00:00
ARGUS22026-08-31 12:30:2827.65730-82.64062270°44km/h28099m0.5m/s-47.6°C0%0hPa0V00:00:0000:00:0000:00:00
ARGUS22026-08-31 12:30:0827.65763-82.63695274°46km/h27981m8.0m/s-48.0°C0%0hPa0V00:00:0000:00:0000:00:00
ARGUS22026-08-31 12:29:4827.65799-82.63343266°82km/h27864m3.3m/s-48.5°C0%0hPa0V00:00:0000:00:0000:00:00
ARGUS22026-08-31 12:29:2727.65886-82.63059266°68km/h27747m1.0m/s-48.5°C0%0hPa0V00:00:0000:00:0000:00:00
ARGUS22026-08-31 12:29:0627.65955-82.62805274°71km/h27615m7.4m/s-49.1°C0%0hPa0V00:00:0000:00:0000:00:00
ARGUS22026-08-31 12:28:4627.65946-82.62585305°22km/h27494m5.1m/s-49.6°C0%0hPa0V00:00:0000:00:0000:00:00
ARGUS22026-08-31 12:28:2627.65932-82.62404210°22km/h27358m4.6m/s-49.3°C0%0hPa0V00:00:0000:00:0000:00:00
ARGUS22026-08-31 12:28:0527.65902-82.62199318°37km/h27230m8.1m/s-49.1°C0%0hPa0V00:00:0000:00:0000:00:00
ARGUS22026-08-31 12:27:4527.65849-82.61959283°46km/h27089m4.5m/s-49.9°C0%0hPa0V00:00:0000:00:0000:00:00
ARGUS22026-08-31 12:27:2327.65858-82.61676291°49km/h26952m2.7m/s-50.0°C0%0hPa0V00:00:0000:00:0000:00:00
ARGUS22026-08-31 12:27:0327.65934-82.61407267°53km/h26826m1.0m/s-50.0°C0%0hPa0V00:00:0000:00:0000:00:00
ARGUS22026-08-31 12:26:4227.66053-82.61067259°49km/h26699m5.5m/s-50.1°C0%0hPa0V00:00:0000:00:0000:00:00
ARGUS22026-08-31 12:26:2227.66153-82.60799256°55km/h26591m4.5m/s-50.5°C0%0hPa0V00:00:0000:00:0000:00:00
ARGUS22026-08-31 12:26:0227.66282-82.60542206°49km/h26465m0.8m/s-49.8°C0%0hPa0V00:00:0000:00:0000:00:00
ARGUS22026-08-31 12:25:4127.66440-82.60303207°64km/h26354m1.1m/s-49.7°C0%0hPa0V00:00:0000:00:0000:00:00
ARGUS22026-08-31 12:25:2127.66638-82.60087222°57km/h26235m6.6m/s-49.6°C0%0hPa0V00:00:0000:00:0000:00:00
ARGUS22026-08-31 12:25:0027.66795-82.59929235°64km/h26119m3.6m/s-49.3°C0%0hPa0V00:00:0000:00:0000:00:00
ARGUS22026-08-31 12:24:4027.66903-82.59808218°26km/h26000m4.7m/s-49.5°C0%0hPa0V00:00:0000:00:0000:00:00
ARGUS22026-08-31 12:24:1927.66950-82.59768259°9km/h25878m7.9m/s-49.5°C0%0hPa0V00:00:0000:00:0000:00:00
ARGUS22026-08-31 12:23:5927.66947-82.59693346°22km/h25737m5.5m/s-49.1°C0%0hPa0V00:00:0000:00:0000:00:00
ARGUS22026-08-31 12:23:3827.66880-82.59596289°24km/h25616m9.5m/s-49.1°C0%0hPa0V00:00:0000:00:0000:00:00
ARGUS22026-08-31 12:23:1827.66849-82.59460279°27km/h25477m4.2m/s-49.0°C0%0hPa0V00:00:0000:00:0000:00:00
ARGUS22026-08-31 12:22:5727.66796-82.59255255°62km/h25349m3.0m/s-49.5°C0%0hPa0V00:00:0000:00:0000:00:00
ARGUS22026-08-31 12:22:3727.66710-82.58988293°46km/h25218m8.8m/s-50.4°C0%0hPa0V00:00:0000:00:0000:00:00
ARGUS22026-08-31 12:22:1527.66607-82.58727298°49km/h25086m6.6m/s-50.7°C0%0hPa0V00:00:0000:00:0000:00:00
ARGUS22026-08-31 12:21:5527.66573-82.58484292°29km/h24971m7.8m/s-51.0°C0%0hPa0V00:00:0000:00:0000:00:00
ARGUS22026-08-31 12:21:3527.66512-82.58252321°42km/h24851m1.8m/s-51.5°C0%0hPa0V00:00:0000:00:0000:00:00
ARGUS22026-08-31 12:21:1427.66444-82.58035281°27km/h24737m5.7m/s-52.0°C0%0hPa0V00:00:0000:00:0000:00:00
ARGUS22026-08-31 12:20:5427.66329-82.57777303°62km/h24624m6.3m/s-52.4°C0%0hPa0V00:00:0000:00:0000:00:00
ARGUS22026-08-31 12:20:3327.66192-82.57484296°47km/h24504m5.0m/s-53.4°C0%0hPa0V00:00:0000:00:0000:00:00
ARGUS22026-08-31 12:20:1327.66047-82.57110268°62km/h24384m5.8m/s-53.2°C0%0hPa0V00:00:0000:00:0000:00:00
ARGUS22026-08-31 12:19:5227.65954-82.56740277°60km/h24261m6.9m/s-52.9°C0%0hPa0V00:00:0000:00:0000:00:00
ARGUS22026-08-31 12:19:3227.65950-82.56322267°91km/h24134m0.4m/s-52.9°C0%0hPa0V00:00:0000:00:0000:00:00
ARGUS22026-08-31 12:19:1127.66053-82.55954272°80km/h24010m6.5m/s-53.7°C0%0hPa0V00:00:0000:00:0000:00:00
ARGUS22026-08-31 12:18:3027.66315-82.55378242°51km/h23746m5.7m/s-54.5°C0%0hPa0V00:00:0000:00:0000:00:00
ARGUS22026-08-31 12:18:1027.66380-82.55083258°64km/h23620m6.2m/s-55.1°C0%0hPa0V00:00:0000:00:0000:00:00
ARGUS22026-08-31 12:17:4927.66471-82.54789229°44km/h23484m7.4m/s-55.3°C0%0hPa0V00:00:0000:00:0000:00:00
ARGUS22026-08-31 12:17:2927.66611-82.54530236°49km/h23359m7.2m/s-56.1°C0%0hPa0V00:00:0000:00:0000:00:00
ARGUS22026-08-31 12:17:0727.66709-82.54321251°24km/h23239m3.7m/s-56.3°C0%0hPa0V00:00:0000:00:0000:00:00
ARGUS22026-08-31 12:16:4727.66768-82.54123264°46km/h23120m5.1m/s-56.9°C0%0hPa0V00:00:0000:00:0000:00:00
ARGUS22026-08-31 12:16:2727.66780-82.53892249°31km/h23009m6.3m/s-56.9°C0%0hPa0V00:00:0000:00:0000:00:00
ARGUS22026-08-31 12:16:0627.66736-82.53682283°35km/h22905m6.2m/s-57.2°C0%0hPa0V00:00:0000:00:0000:00:00
ARGUS22026-08-31 12:15:4527.66659-82.53461296°49km/h22795m4.1m/s-57.9°C0%0hPa0V00:00:0000:00:0000:00:00
ARGUS22026-08-31 12:15:2527.66594-82.53205261°46km/h22689m1.5m/s-58.6°C0%0hPa0V00:00:0000:00:0000:00:00
ARGUS22026-08-31 12:15:0527.66547-82.52857282°66km/h22582m3.3m/s-58.8°C0%0hPa0V00:00:0000:00:0000:00:00
ARGUS22026-08-31 12:14:4427.66522-82.52516289°69km/h22480m5.1m/s-58.7°C0%0hPa0V00:00:0000:00:0000:00:00
ARGUS22026-08-31 12:14:2427.66497-82.52123260°75km/h22368m2.3m/s-58.4°C0%0hPa0V00:00:0000:00:0000:00:00
ARGUS22026-08-31 12:14:0327.66481-82.51736265°78km/h22262m6.1m/s-58.4°C0%0hPa0V00:00:0000:00:0000:00:00
ARGUS22026-08-31 12:13:4327.66443-82.51370266°49km/h22146m6.1m/s-59.0°C0%0hPa0V00:00:0000:00:0000:00:00
ARGUS22026-08-31 12:13:2227.66403-82.51058286°60km/h22029m5.7m/s-59.9°C0%0hPa0V00:00:0000:00:0000:00:00
ARGUS22026-08-31 12:12:4127.66425-82.50477276°35km/h21805m7.3m/s-60.4°C0%0hPa0V00:00:0000:00:0000:00:00
ARGUS22026-08-31 12:12:2127.66397-82.50234288°53km/h21679m3.0m/s-60.1°C0%0hPa0V00:00:0000:00:0000:00:00
ARGUS22026-08-31 12:11:5927.66306-82.50015296°40km/h21560m6.2m/s-60.1°C0%0hPa0V00:00:0000:00:0000:00:00
ARGUS22026-08-31 12:11:3927.66230-82.49753287°53km/h21446m5.9m/s-59.4°C0%0hPa0V00:00:0000:00:0000:00:00
ARGUS22026-08-31 12:11:1827.66187-82.49493290°47km/h21332m6.9m/s-58.5°C0%0hPa0V00:00:0000:00:0000:00:00
ARGUS22026-08-31 12:10:5827.66182-82.49226272°57km/h21227m3.6m/s-58.3°C0%0hPa0V00:00:0000:00:0000:00:00
ARGUS22026-08-31 12:10:3927.66225-82.48990261°31km/h21116m5.8m/s-58.7°C0%0hPa0V00:00:0000:00:0000:00:00
ARGUS22026-08-31 12:10:1727.66202-82.48775282°44km/h20996m5.4m/s-59.1°C0%0hPa0V00:00:0000:00:0000:00:00
ARGUS22026-08-31 12:09:5627.66146-82.48586264°37km/h20886m4.6m/s-59.1°C0%0hPa0V00:00:0000:00:0000:00:00
ARGUS22026-08-31 12:09:3627.66132-82.48334275°58km/h20771m6.3m/s-58.9°C0%0hPa0V00:00:0000:00:0000:00:00
ARGUS22026-08-31 12:09:1627.66134-82.48010270°53km/h20647m7.2m/s-58.9°C0%0hPa0V00:00:0000:00:0000:00:00
ARGUS22026-08-31 12:08:5527.66177-82.47722250°47km/h20530m6.1m/s-60.1°C0%0hPa0V00:00:0000:00:0000:00:00
ARGUS22026-08-31 12:08:3527.66201-82.47476237°35km/h20408m7.2m/s-60.6°C0%0hPa0V00:00:0000:00:0000:00:00
ARGUS22026-08-31 12:08:1427.66265-82.47249267°47km/h20288m6.1m/s-61.4°C0%0hPa0V00:00:0000:00:0000:00:00
ARGUS22026-08-31 12:07:5327.66328-82.46958262°53km/h20168m7.3m/s-60.8°C0%0hPa0V00:00:0000:00:0000:00:00
ARGUS22026-08-31 12:07:3327.66412-82.46675237°58km/h20059m6.0m/s-60.5°C0%0hPa0V00:00:0000:00:0000:00:00
ARGUS22026-08-31 12:07:1327.66561-82.46387237°62km/h19946m4.9m/s-60.5°C0%0hPa0V00:00:0000:00:0000:00:00
ARGUS22026-08-31 12:06:5227.66752-82.46091218°55km/h19839m5.5m/s-60.8°C0%0hPa0V00:00:0000:00:0000:00:00
ARGUS22026-08-31 12:06:3227.66958-82.45818221°60km/h19732m6.2m/s-61.2°C0%0hPa0V00:00:0000:00:0000:00:00
ARGUS22026-08-31 12:06:1027.67186-82.45609214°58km/h19627m4.4m/s-61.8°C0%0hPa0V00:00:0000:00:0000:00:00
ARGUS22026-08-31 12:05:5027.67389-82.45467216°35km/h19529m3.8m/s-61.7°C0%0hPa0V00:00:0000:00:0000:00:00
ARGUS22026-08-31 12:05:3027.67543-82.45355223°15km/h19425m3.7m/s-62.8°C0%0hPa0V00:00:0000:00:0000:00:00
ARGUS22026-08-31 12:05:0927.67600-82.45263278°33km/h19331m5.0m/s-63.3°C0%0hPa0V00:00:0000:00:0000:00:00
ARGUS22026-08-31 12:04:4927.67578-82.45136286°16km/h19233m4.8m/s-64.6°C0%0hPa0V00:00:0000:00:0000:00:00
ARGUS22026-08-31 12:04:2827.67603-82.44981229°31km/h19138m3.5m/s-65.0°C0%0hPa0V00:00:0000:00:0000:00:00
ARGUS22026-08-31 12:04:0827.67684-82.44805226°38km/h19029m5.4m/s-65.4°C0%0hPa0V00:00:0000:00:0000:00:00
ARGUS22026-08-31 12:03:4727.67797-82.44633237°27km/h18931m3.8m/s-65.0°C0%0hPa0V00:00:0000:00:0000:00:00
ARGUS22026-08-31 12:03:2727.67951-82.44493211°40km/h18823m6.7m/s-65.1°C0%0hPa0V00:00:0000:00:0000:00:00
ARGUS22026-08-31 12:03:0627.68101-82.44424209°31km/h18717m6.3m/s-65.8°C0%0hPa0V00:00:0000:00:0000:00:00
ARGUS22026-08-31 12:02:4627.68235-82.44356228°42km/h18609m5.7m/s-65.6°C0%0hPa0V00:00:0000:00:0000:00:00
ARGUS22026-08-31 12:02:2527.68312-82.44271228°18km/h18504m4.6m/s-65.7°C0%0hPa0V00:00:0000:00:0000:00:00
ARGUS22026-08-31 12:02:0527.68327-82.44150295°29km/h18397m7.2m/s-68.2°C0%0hPa0V00:00:0000:00:0000:00:00
ARGUS22026-08-31 12:01:4427.68294-82.44002307°11km/h18292m6.4m/s-69.4°C0%0hPa0V00:00:0000:00:0000:00:00
ARGUS22026-08-31 12:01:2327.68268-82.43916297°16km/h18194m5.8m/s-69.3°C0%0hPa0V00:00:0000:00:0000:00:00
ARGUS22026-08-31 12:01:0227.68213-82.43802289°16km/h18095m5.1m/s-68.7°C0%0hPa0V00:00:0000:00:0000:00:00
ARGUS22026-08-31 12:00:4227.68158-82.43673302°33km/h17999m3.9m/s-68.2°C0%0hPa0V00:00:0000:00:0000:00:00
ARGUS22026-08-31 12:00:2127.68110-82.43481282°40km/h17893m3.8m/s-67.7°C0%0hPa0V00:00:0000:00:0000:00:00
ARGUS22026-08-31 12:00:0127.68114-82.43285261°44km/h17794m6.1m/s-67.9°C0%0hPa0V00:00:0000:00:0000:00:00
ARGUS22026-08-31 11:59:4127.68181-82.43104236°40km/h17682m6.4m/s-67.4°C0%0hPa0V00:00:0000:00:0000:00:00
ARGUS22026-08-31 11:59:2027.68272-82.42944249°44km/h17576m5.7m/s-66.7°C0%0hPa0V00:00:0000:00:0000:00:00
ARGUS22026-08-31 11:59:0027.68376-82.42806233°24km/h17466m6.7m/s-66.0°C0%0hPa0V00:00:0000:00:0000:00:00
ARGUS22026-08-31 11:58:3927.68470-82.42710217°20km/h17359m6.5m/s-66.8°C0%0hPa0V00:00:0000:00:0000:00:00
ARGUS22026-08-31 11:58:1927.68604-82.42668198°27km/h17248m5.9m/s-67.4°C0%0hPa0V00:00:0000:00:0000:00:00
ARGUS22026-08-31 11:57:5827.68683-82.42607234°16km/h17136m5.6m/s-67.5°C0%0hPa0V00:00:0000:00:0000:00:00
ARGUS22026-08-31 11:57:3827.68738-82.42519257°20km/h17027m3.9m/s-66.9°C0%0hPa0V00:00:0000:00:0000:00:00
ARGUS22026-08-31 11:57:1827.68812-82.42456197°15km/h16924m5.8m/s-67.9°C0%0hPa0V00:00:0000:00:0000:00:00
ARGUS22026-08-31 11:56:5727.68867-82.42396250°7km/h16818m5.1m/s-67.5°C0%0hPa0V00:00:0000:00:0000:00:00
ARGUS22026-08-31 11:56:3627.68930-82.42317212°18km/h16717m4.4m/s-66.7°C0%0hPa0V00:00:0000:00:0000:00:00
ARGUS22026-08-31 11:56:1527.68977-82.42269232°22km/h16622m6.1m/s-65.9°C0%0hPa0V00:00:0000:00:0000:00:00
ARGUS22026-08-31 11:55:5527.69015-82.42232243°5km/h16520m6.2m/s-65.3°C0%0hPa0V00:00:0000:00:0000:00:00
ARGUS22026-08-31 11:55:3427.69041-82.42210225°4km/h16425m5.8m/s-65.0°C0%0hPa0V00:00:0000:00:0000:00:00
ARGUS22026-08-31 11:55:1427.69077-82.4220116°4km/h16328m3.3m/s-66.1°C0%0hPa0V00:00:0000:00:0000:00:00
ARGUS22026-08-31 11:54:5327.69105-82.42249142°5km/h16230m5.4m/s-66.4°C0%0hPa0V00:00:0000:00:0000:00:00
ARGUS22026-08-31 11:54:3327.69147-82.42259201°11km/h16125m5.8m/s-67.1°C0%0hPa0V00:00:0000:00:0000:00:00
ARGUS22026-08-31 11:54:1327.69185-82.42213252°5km/h16025m6.1m/s-67.8°C0%0hPa0V00:00:0000:00:0000:00:00
ARGUS22026-08-31 11:53:5227.69240-82.42154224°27km/h15912m6.5m/s-67.6°C0%0hPa0V00:00:0000:00:0000:00:00
ARGUS22026-08-31 11:53:3227.69351-82.42121207°22km/h15810m6.2m/s-67.9°C0%0hPa0V00:00:0000:00:0000:00:00
ARGUS22026-08-31 11:53:1127.69449-82.42111191°29km/h15702m4.0m/s-68.8°C0%0hPa0V00:00:0000:00:0000:00:00
ARGUS22026-08-31 11:52:5127.69523-82.42089188°18km/h15601m6.6m/s-68.1°C0%0hPa0V00:00:0000:00:0000:00:00
ARGUS22026-08-31 11:52:3027.69590-82.42052249°11km/h15495m6.1m/s-67.5°C0%0hPa0V00:00:0000:00:0000:00:00
ARGUS22026-08-31 11:52:1027.69641-82.42011215°18km/h15393m5.6m/s-67.8°C0%0hPa0V00:00:0000:00:0000:00:00
ARGUS22026-08-31 11:51:4927.69698-82.42001167°15km/h15291m5.4m/s-67.2°C0%0hPa0V00:00:0000:00:0000:00:00
ARGUS22026-08-31 11:51:2727.69749-82.42023156°7km/h15191m5.2m/s-68.4°C0%0hPa0V00:00:0000:00:0000:00:00
ARGUS22026-08-31 11:51:0727.69770-82.42016292°16km/h15090m4.6m/s-68.6°C0%0hPa0V00:00:0000:00:0000:00:00
ARGUS22026-08-31 11:50:4627.69771-82.41951238°18km/h14988m5.4m/s-68.9°C0%0hPa0V00:00:0000:00:0000:00:00
ARGUS22026-08-31 11:50:2627.69781-82.41923270°15km/h14891m3.2m/s-68.9°C0%0hPa0V00:00:0000:00:0000:00:00
ARGUS22026-08-31 11:50:0627.69738-82.41904308°5km/h14784m5.3m/s-68.7°C0%0hPa0V00:00:0000:00:0000:00:00
ARGUS22026-08-31 11:49:4527.69688-82.41874294°16km/h14684m6.8m/s-67.9°C0%0hPa0V00:00:0000:00:0000:00:00
ARGUS22026-08-31 11:49:2527.69653-82.41845284°13km/h14579m4.4m/s-67.3°C0%0hPa0V00:00:0000:00:0000:00:00
ARGUS22026-08-31 11:49:0527.69638-82.41801293°15km/h14480m5.1m/s-66.7°C0%0hPa0V00:00:0000:00:0000:00:00
ARGUS22026-08-31 11:48:4427.69653-82.41749282°5km/h14380m4.2m/s-66.6°C0%0hPa0V00:00:0000:00:0000:00:00
ARGUS22026-08-31 11:48:2327.69690-82.41709213°18km/h14282m4.8m/s-66.1°C0%0hPa0V00:00:0000:00:0000:00:00
ARGUS22026-08-31 11:48:0327.69744-82.41690194°15km/h14181m5.3m/s-65.5°C0%0hPa0V00:00:0000:00:0000:00:00
ARGUS22026-08-31 11:47:4227.69788-82.41674134°4km/h14087m5.3m/s-64.8°C0%0hPa0V00:00:0000:00:0000:00:00
ARGUS22026-08-31 11:47:2227.69829-82.41665155°9km/h13988m6.3m/s-64.3°C0%0hPa0V00:00:0000:00:0000:00:00
ARGUS22026-08-31 11:47:0127.69867-82.41666139°15km/h13896m5.0m/s-63.6°C0%0hPa0V00:00:0000:00:0000:00:00
ARGUS22026-08-31 11:46:4127.69920-82.41689185°20km/h13800m3.9m/s-62.9°C0%0hPa0V00:00:0000:00:0000:00:00
ARGUS22026-08-31 11:46:2027.69968-82.41701161°11km/h13700m4.7m/s-62.2°C0%0hPa0V00:00:0000:00:0000:00:00
ARGUS22026-08-31 11:46:0027.70001-82.41726138°11km/h13611m3.0m/s-61.6°C0%0hPa0V00:00:0000:00:0000:00:00
ARGUS22026-08-31 11:45:3927.70048-82.41766109°9km/h13515m5.1m/s-60.8°C0%0hPa0V00:00:0000:00:0000:00:00
ARGUS22026-08-31 11:45:1927.70073-82.41831128°11km/h13415m5.8m/s-60.0°C0%0hPa0V00:00:0000:00:0000:00:00
ARGUS22026-08-31 11:44:5827.70093-82.41917101°7km/h13314m3.4m/s-59.2°C0%0hPa0V00:00:0000:00:0000:00:00
ARGUS22026-08-31 11:44:3727.70110-82.4199183°24km/h13219m4.4m/s-58.5°C0%0hPa0V00:00:0000:00:0000:00:00
ARGUS22026-08-31 11:44:1727.70117-82.4206279°7km/h13123m4.8m/s-57.6°C0%0hPa0V00:00:0000:00:0000:00:00
ARGUS22026-08-31 11:43:5727.70121-82.4211764°11km/h13034m3.0m/s-56.9°C0%0hPa0V00:00:0000:00:0000:00:00
ARGUS22026-08-31 11:43:3527.70125-82.4217599°15km/h12939m4.1m/s-56.0°C0%0hPa0V00:00:0000:00:0000:00:00
ARGUS22026-08-31 11:43:1527.70142-82.42223117°7km/h12849m5.3m/s-55.4°C0%0hPa0V00:00:0000:00:0000:00:00
ARGUS22026-08-31 11:42:5527.70156-82.42277103°13km/h12753m5.0m/s-54.6°C0%0hPa0V00:00:0000:00:0000:00:00
ARGUS22026-08-31 11:42:3427.70168-82.42327157°11km/h12663m4.5m/s-53.8°C0%0hPa0V00:00:0000:00:0000:00:00
ARGUS22026-08-31 11:42:1427.70182-82.4238693°22km/h12571m3.8m/s-53.0°C0%0hPa0V00:00:0000:00:0000:00:00
ARGUS22026-08-31 11:41:5427.70189-82.42449132°7km/h12476m5.2m/s-52.2°C0%0hPa0V00:00:0000:00:0000:00:00
ARGUS22026-08-31 11:41:3327.70209-82.4253484°22km/h12385m4.0m/s-51.5°C0%0hPa0V00:00:0000:00:0000:00:00
ARGUS22026-08-31 11:41:1227.70221-82.4262592°9km/h12293m2.6m/s-50.7°C0%0hPa0V00:00:0000:00:0000:00:00
ARGUS22026-08-31 11:40:5127.70229-82.4269465°13km/h12201m5.1m/s-49.9°C0%0hPa0V00:00:0000:00:0000:00:00
ARGUS22026-08-31 11:40:3127.70223-82.42761152°4km/h12098m4.9m/s-49.0°C0%0hPa0V00:00:0000:00:0000:00:00
ARGUS22026-08-31 11:40:1127.70207-82.42825107°18km/h12000m4.1m/s-48.2°C0%0hPa0V00:00:0000:00:0000:00:00
ARGUS22026-08-31 11:39:5027.70194-82.4291791°11km/h11905m4.0m/s-47.3°C0%0hPa0V00:00:0000:00:0000:00:00
ARGUS22026-08-31 11:39:2927.70190-82.4299182°26km/h11807m4.7m/s-46.6°C0%0hPa0V00:00:0000:00:0000:00:00
ARGUS22026-08-31 11:39:0927.70207-82.43122115°35km/h11705m5.1m/s-46.0°C0%0hPa0V00:00:0000:00:0000:00:00
ARGUS22026-08-31 11:38:4827.70249-82.43292118°29km/h11611m4.6m/s-45.2°C0%0hPa0V00:00:0000:00:0000:00:00
ARGUS22026-08-31 11:38:2727.70281-82.43445105°20km/h11511m3.8m/s-44.4°C0%0hPa0V00:00:0000:00:0000:00:00
ARGUS22026-08-31 11:38:0827.70303-82.4361080°27km/h11425m3.9m/s-43.6°C0%0hPa0V00:00:0000:00:0000:00:00
ARGUS22026-08-31 11:37:4727.70308-82.4376597°26km/h11329m6.0m/s-42.9°C0%0hPa0V00:00:0000:00:0000:00:00
ARGUS22026-08-31 11:37:2627.70321-82.43909107°24km/h11239m4.8m/s-42.1°C0%0hPa0V00:00:0000:00:0000:00:00
ARGUS22026-08-31 11:37:0627.70328-82.4405899°22km/h11142m4.4m/s-41.3°C0%0hPa0V00:00:0000:00:0000:00:00
ARGUS22026-08-31 11:36:4527.70320-82.4419878°27km/h11049m4.4m/s-40.5°C0%0hPa0V00:00:0000:00:0000:00:00
ARGUS22026-08-31 11:36:2527.70309-82.4433285°20km/h10951m5.3m/s-39.7°C0%0hPa0V00:00:0000:00:0000:00:00
ARGUS22026-08-31 11:36:0327.70303-82.4445891°22km/h10854m3.5m/s-38.9°C0%0hPa0V00:00:0000:00:0000:00:00
ARGUS22026-08-31 11:35:4327.70275-82.4457962°22km/h10763m4.1m/s-38.1°C0%0hPa0V00:00:0000:00:0000:00:00
ARGUS22026-08-31 11:35:2327.70228-82.4469355°22km/h10664m5.2m/s-37.3°C0%0hPa0V00:00:0000:00:0000:00:00
ARGUS22026-08-31 11:34:4227.70149-82.4487859°22km/h10471m4.3m/s-35.7°C0%0hPa0V00:00:0000:00:0000:00:00
ARGUS22026-08-31 11:34:2127.70103-82.4495185°18km/h10373m5.3m/s-34.8°C0%0hPa0V00:00:0000:00:0000:00:00
ARGUS22026-08-31 11:34:0127.70058-82.4502053°20km/h10278m3.8m/s-34.2°C0%0hPa0V00:00:0000:00:0000:00:00
ARGUS22026-08-31 11:33:4027.70026-82.4507341°18km/h10185m6.4m/s-33.5°C0%0hPa0V00:00:0000:00:0000:00:00
ARGUS22026-08-31 11:33:2027.69995-82.4512070°11km/h10086m6.1m/s-32.7°C0%0hPa0V00:00:0000:00:0000:00:00
ARGUS22026-08-31 11:32:5927.69962-82.4516876°16km/h9999m4.6m/s-32.2°C0%0hPa0V00:00:0000:00:0000:00:00
ARGUS22026-08-31 11:32:3927.69931-82.4520573°15km/h9902m4.9m/s-31.8°C0%0hPa0V00:00:0000:00:0000:00:00
ARGUS22026-08-31 11:32:1827.69893-82.45223358°11km/h9810m5.3m/s-31.2°C0%0hPa0V00:00:0000:00:0000:00:00
ARGUS22026-08-31 11:31:5827.69840-82.45233337°7km/h9716m5.0m/s-30.4°C0%0hPa0V00:00:0000:00:0000:00:00
ARGUS22026-08-31 11:31:3727.69812-82.45245355°15km/h9618m4.3m/s-29.5°C0%0hPa0V00:00:0000:00:0000:00:00
ARGUS22026-08-31 11:31:1727.69768-82.4527256°11km/h9521m4.1m/s-28.8°C0%0hPa0V00:00:0000:00:0000:00:00
ARGUS22026-08-31 11:30:5527.69731-82.45318110°13km/h9433m5.3m/s-28.1°C0%0hPa0V00:00:0000:00:0000:00:00
ARGUS22026-08-31 11:30:3527.69715-82.4536485°9km/h9336m4.6m/s-27.2°C0%0hPa0V00:00:0000:00:0000:00:00
ARGUS22026-08-31 11:30:1527.69694-82.4540614°11km/h9239m4.4m/s-26.3°C0%0hPa0V00:00:0000:00:0000:00:00
ARGUS22026-08-31 11:29:5427.69667-82.4543195°9km/h9150m5.5m/s-25.7°C0%0hPa0V00:00:0000:00:0000:00:00
ARGUS22026-08-31 11:29:3327.69653-82.4544494°5km/h9055m4.8m/s-25.0°C0%0hPa0V00:00:0000:00:0000:00:00
ARGUS22026-08-31 11:29:1327.69649-82.4545199°2km/h8965m4.0m/s-24.5°C0%0hPa0V00:00:0000:00:0000:00:00
ARGUS22026-08-31 11:28:5327.69654-82.45434238°9km/h8872m5.5m/s-23.8°C0%0hPa0V00:00:0000:00:0000:00:00
ARGUS22026-08-31 11:28:3227.69664-82.45411217°7km/h8781m4.0m/s-23.0°C0%0hPa0V00:00:0000:00:0000:00:00
ARGUS22026-08-31 11:28:1127.69686-82.45383223°7km/h8685m3.8m/s-22.7°C0%0hPa0V00:00:0000:00:0000:00:00
ARGUS22026-08-31 11:27:5127.69700-82.45339250°26km/h8593m3.9m/s-22.3°C0%0hPa0V00:00:0000:00:0000:00:00
ARGUS22026-08-31 11:27:2927.69723-82.45287223°20km/h8479m4.3m/s-21.8°C0%0hPa0V00:00:0000:00:0000:00:00
ARGUS22026-08-31 11:27:0727.69751-82.45230228°11km/h8377m6.0m/s0°C0%0hPa0V00:00:0000:00:0000:00:00
ARGUS22026-08-31 11:26:4627.69796-82.45176244°18km/h8288m3.4m/s-20.7°C0%0hPa0V00:00:0000:00:0000:00:00
ARGUS22026-08-31 11:26:2227.69818-82.45126186°24km/h8172m5.5m/s-19.7°C0%0hPa0V00:00:0000:00:0000:00:00
ARGUS22026-08-31 11:26:0027.69886-82.45099210°31km/h8071m2.6m/s-19.1°C0%0hPa0V00:00:0000:00:0000:00:00
ARGUS22026-08-31 11:25:3427.69991-82.45069215°20km/h7935m3.1m/s-18.3°C0%0hPa0V00:00:0000:00:0000:00:00
ARGUS22026-08-31 11:25:1127.70087-82.45032188°20km/h7836m3.0m/s-17.6°C0%0hPa0V00:00:0000:00:0000:00:00
ARGUS22026-08-31 11:24:5127.70165-82.45004185°9km/h7747m4.6m/s-17.1°C0%0hPa0V00:00:0000:00:0000:00:00
ARGUS22026-08-31 11:24:3027.70240-82.44972164°27km/h7656m4.7m/s-16.7°C0%0hPa0V00:00:0000:00:0000:00:00
ARGUS22026-08-31 11:24:0927.70316-82.44936209°18km/h7566m5.1m/s-16.2°C0%0hPa0V00:00:0000:00:0000:00:00
ARGUS22026-08-31 11:23:4727.70377-82.44893215°20km/h7475m5.3m/s0°C0%0hPa0V00:00:0000:00:0000:00:00
ARGUS22026-08-31 11:21:0827.70842-82.44696217°26km/h6677m7.0m/s-10.7°C0%0hPa0V00:00:0000:00:0000:00:00
ARGUS22026-08-31 11:20:4627.70862-82.44629272°11km/h6556m4.5m/s-9.8°C0%0hPa0V00:00:0000:00:0000:00:00
ARGUS22026-08-31 11:20:2527.70892-82.44547216°9km/h6443m4.3m/s-9.1°C0%0hPa0V00:00:0000:00:0000:00:00
ARGUS22026-08-31 11:20:0527.70929-82.44463232°18km/h6326m5.4m/s-8.2°C0%0hPa0V00:00:0000:00:0000:00:00
ARGUS22026-08-31 11:19:4327.70960-82.44349287°15km/h6222m7.1m/s0°C0%0hPa0V00:00:0000:00:0000:00:00
ARGUS22026-08-31 11:18:0327.71088-82.43910207°9km/h5669m4.6m/s-3.9°C0%0hPa0V00:00:0000:00:0000:00:00
ARGUS22026-08-31 11:17:4327.71128-82.43818260°38km/h5551m4.7m/s-3.1°C0%0hPa0V00:00:0000:00:0000:00:00
ARGUS22026-08-31 11:17:2227.71145-82.43696283°29km/h5437m6.7m/s-2.4°C0%0hPa0V00:00:0000:00:0000:00:00
ARGUS22026-08-31 11:16:4127.71158-82.43483292°26km/h5204m4.6m/s-1.1°C0%0hPa0V00:00:0000:00:0000:00:00
ARGUS22026-08-31 11:16:2127.71180-82.43353290°33km/h5096m2.1m/s-0.7°C0%0hPa0V00:00:0000:00:0000:00:00
ARGUS22026-08-31 11:16:0027.71193-82.43263350°15km/h4985m4.0m/s-0.2°C0%0hPa0V00:00:0000:00:0000:00:00
ARGUS22026-08-31 11:15:4027.71210-82.43179192°11km/h4868m5.8m/s0.1°C0%0hPa0V00:00:0000:00:0000:00:00
ARGUS22026-08-31 11:15:1927.71193-82.43107279°38km/h4749m6.0m/s0.8°C0%0hPa0V00:00:0000:00:0000:00:00
ARGUS22026-08-31 11:14:5727.71201-82.42957225°24km/h4630m6.0m/s1.5°C0%0hPa0V00:00:0000:00:0000:00:00
ARGUS22026-08-31 11:14:3427.71177-82.42860221°26km/h4507m3.5m/s2.0°C0%0hPa0V00:00:0000:00:0000:00:00
ARGUS22026-08-31 11:14:1427.71209-82.42732256°35km/h4407m3.8m/s2.4°C0%0hPa0V00:00:0000:00:0000:00:00
ARGUS22026-08-31 11:13:3327.71283-82.42499310°4km/h4202m3.7m/s3.5°C0%0hPa0V00:00:0000:00:0000:00:00
ARGUS22026-08-31 11:13:1227.71294-82.42372251°24km/h4083m5.7m/s4.1°C0%0hPa0V00:00:0000:00:0000:00:00
ARGUS22026-08-31 11:12:5027.71334-82.42286218°15km/h3979m6.4m/s4.5°C0%0hPa0V00:00:0000:00:0000:00:00
ARGUS22026-08-31 11:12:2827.71331-82.42220298°26km/h3860m4.3m/s5.1°C0%0hPa0V00:00:0000:00:0000:00:00
ARGUS22026-08-31 11:12:0727.71339-82.42123351°2km/h3747m4.8m/s5.8°C0%0hPa0V00:00:0000:00:0000:00:00
ARGUS22026-08-31 11:11:4527.71341-82.41995271°20km/h3637m5.6m/s6.2°C0%0hPa0V00:00:0000:00:0000:00:00
ARGUS22026-08-31 11:11:2427.71362-82.41897325°27km/h3519m5.4m/s7.3°C0%0hPa0V00:00:0000:00:0000:00:00
ARGUS22026-08-31 11:11:0427.71353-82.41785222°15km/h3402m5.8m/s8.2°C0%0hPa0V00:00:0000:00:0000:00:00
ARGUS22026-08-31 11:08:0027.71210-82.41486297°18km/h2385m3.9m/s13.1°C0%0hPa0V00:00:0000:00:0000:00:00
ARGUS22026-08-31 11:07:3527.71194-82.41447211°18km/h2251m6.6m/s13.6°C0%0hPa0V00:00:0000:00:0000:00:00
ARGUS22026-08-31 11:07:1427.71181-82.41414325°18km/h2129m4.7m/s13.9°C0%0hPa0V00:00:0000:00:0000:00:00
ARGUS22026-08-31 11:06:5227.71184-82.41364211°13km/h2013m5.3m/s14.4°C0%0hPa0V00:00:0000:00:0000:00:00
ARGUS22026-08-31 11:06:2927.71190-82.41295320°26km/h1895m5.2m/s14.9°C0%0hPa0V00:00:0000:00:0000:00:00
ARGUS22026-08-31 11:06:0627.71175-82.41229277°27km/h1762m4.2m/s15.6°C0%0hPa0V00:00:0000:00:0000:00:00
ARGUS22026-08-31 11:05:4027.71148-82.41169199°18km/h1618m5.2m/s15.7°C0%0hPa0V00:00:0000:00:0000:00:00
ARGUS22026-08-31 11:05:1227.71121-82.41106299°22km/h1466m5.4m/s17.0°C0%0hPa0V00:00:0000:00:0000:00:00
ARGUS22026-08-31 11:04:5227.71085-82.41040273°9km/h1351m5.6m/s17.9°C0%0hPa0V00:00:0000:00:0000:00:00


GPX KML Map

© wettersonde.net (DO2JMG) - 2026  -  -